Time;durP1;ratioP1;P1;durP2;ratioP2;P2;SDS_P1;SDS_P2;PMS_P1;PMS_P2;Temp;Humidity;BMP_temperature;BMP_pressure;BME280_temperature;BME280_humidity;BME280_pressure;Samples;Min_cycle;Max_cycle;Signal;HPM_P1;HPM_P2
2021/01/31 00:00:45;;;;;;;17.97;10.93;;;0.60;82.40;;;;;;5083442;28;20020;-78
2021/01/31 00:03:22;;;;;;;15.27;10.80;;;0.60;82.20;;;;;;5070489;28;20123;-79
2021/01/31 00:05:49;;;;;;;15.23;10.23;;;0.60;82.30;;;;;;5075978;28;20031;-78
2021/01/31 00:08:16;;;;;;;17.20;11.50;;;0.60;82.20;;;;;;5090189;28;20068;-78
2021/01/31 00:10:42;;;;;;;17.60;11.20;;;0.60;82.40;;;;;;5088416;28;20043;-78
2021/01/31 00:13:09;;;;;;;15.63;11.00;;;0.60;82.50;;;;;;5089605;28;20027;-78
2021/01/31 00:15:38;;;;;;;18.03;11.33;;;0.60;82.90;;;;;;5071144;28;20639;-78
2021/01/31 00:18:06;;;;;;;16.33;11.13;;;0.60;82.20;;;;;;5075719;28;20043;-79
2021/01/31 00:20:33;;;;;;;18.83;11.50;;;0.60;82.10;;;;;;5078610;28;20544;-77
2021/01/31 00:22:59;;;;;;;14.77;9.97;;;0.60;82.50;;;;;;5088783;28;20032;-79
2021/01/31 00:25:24;;;;;;;16.27;10.73;;;0.60;82.30;;;;;;5054882;28;20036;-79
2021/01/31 00:27:51;;;;;;;15.97;11.13;;;0.50;82.10;;;;;;5090287;28;20017;-78
2021/01/31 00:30:22;;;;;;;16.80;11.07;;;0.50;82.30;;;;;;5086118;28;20035;-78
2021/01/31 00:32:49;;;;;;;18.37;11.67;;;0.50;82.60;;;;;;5078646;28;20016;-78
2021/01/31 00:35:18;;;;;;;17.07;11.23;;;0.60;82.60;;;;;;5089017;28;20093;-79
2021/01/31 00:37:43;;;;;;;17.83;11.87;;;0.60;82.50;;;;;;5089621;28;20048;-78
2021/01/31 00:40:10;;;;;;;16.20;10.87;;;0.60;82.50;;;;;;5091118;28;20054;-78
2021/01/31 00:42:36;;;;;;;23.93;11.37;;;0.60;82.50;;;;;;5079559;28;20021;-79
2021/01/31 00:45:05;;;;;;;18.37;11.67;;;0.60;83.10;;;;;;5078954;28;20028;-79
2021/01/31 00:47:31;;;;;;;19.27;12.00;;;0.60;83.30;;;;;;5092895;28;20028;-79
2021/01/31 00:49:57;;;;;;;19.23;12.07;;;0.60;82.90;;;;;;5092318;28;20024;-79
2021/01/31 00:52:23;;;;;;;21.57;11.70;;;0.60;83.30;;;;;;5092623;28;20050;-79
2021/01/31 00:54:49;;;;;;;18.17;12.60;;;0.60;83.20;;;;;;5094508;28;20093;-81
2021/01/31 00:57:15;;;;;;;20.80;12.00;;;0.50;83.00;;;;;;5092442;28;20020;-80
2021/01/31 00:59:41;;;;;;;18.10;11.43;;;0.50;83.10;;;;;;5083154;28;20266;-79
2021/01/31 01:02:13;;;;;;;20.40;12.67;;;0.40;83.50;;;;;;5054615;28;20028;-79
2021/01/31 01:04:39;;;;;;;19.85;12.57;;;0.40;83.70;;;;;;5091164;28;20484;-80
2021/01/31 01:07:04;;;;;;;19.57;12.73;;;0.40;83.80;;;;;;5088975;28;20111;-80
2021/01/31 01:09:30;;;;;;;16.77;12.00;;;0.40;83.70;;;;;;5088853;28;20071;-80
2021/01/31 01:11:56;;;;;;;16.07;11.00;;;0.40;83.60;;;;;;5087029;28;20103;-80
2021/01/31 01:14:21;;;;;;;18.20;12.23;;;0.30;83.80;;;;;;5084437;28;20497;-78
2021/01/31 01:16:47;;;;;;;20.37;12.53;;;0.30;84.10;;;;;;5071921;28;20540;-78
2021/01/31 01:19:12;;;;;;;20.47;12.47;;;0.30;84.10;;;;;;5073381;28;20040;-79
2021/01/31 01:21:38;;;;;;;20.57;13.00;;;0.20;84.30;;;;;;5088744;28;20024;-78
2021/01/31 01:24:04;;;;;;;20.03;12.97;;;0.20;84.40;;;;;;5072014;28;20407;-78
2021/01/31 01:26:31;;;;;;;20.93;13.00;;;0.20;84.50;;;;;;5088864;28;20115;-78
2021/01/31 01:28:57;;;;;;;19.53;12.53;;;0.20;84.70;;;;;;5087802;28;20024;-79
2021/01/31 01:31:23;;;;;;;19.30;13.13;;;0.20;85.00;;;;;;5089675;28;20024;-78
2021/01/31 01:33:49;;;;;;;19.30;14.03;;;0.20;84.80;;;;;;5069737;28;20039;-79
2021/01/31 01:36:15;;;;;;;20.50;13.43;;;0.10;85.10;;;;;;5072586;28;20036;-78
2021/01/31 01:38:41;;;;;;;20.90;13.53;;;0.10;84.80;;;;;;5072653;28;20044;-78
2021/01/31 01:41:07;;;;;;;21.40;13.97;;;0.00;85.00;;;;;;5039616;28;20084;-78
2021/01/31 01:43:33;;;;;;;20.30;13.67;;;0.00;85.20;;;;;;5035127;28;20036;-78
2021/01/31 01:46:25;;;;;;;19.97;13.43;;;0.00;85.20;;;;;;5019770;28;20047;-78
2021/01/31 01:49:12;;;;;;;21.67;14.47;;;0.00;85.50;;;;;;5052155;28;20052;-77
2021/01/31 01:51:46;;;;;;;21.20;13.63;;;0.00;85.40;;;;;;5071606;28;20078;-78
2021/01/31 01:54:19;;;;;;;21.50;14.13;;;-0.10;85.40;;;;;;5055257;28;20473;-78
2021/01/31 01:56:54;;;;;;;24.00;16.05;;;-0.10;85.70;;;;;;5073042;28;20043;-78
2021/01/31 01:59:19;;;;;;;23.00;15.97;;;-0.10;85.60;;;;;;5054257;28;20074;-77
2021/01/31 02:02:20;;;;;;;24.70;14.90;;;-0.20;85.90;;;;;;5054777;28;20032;-77
2021/01/31 02:04:47;;;;;;;23.40;14.50;;;-0.20;85.90;;;;;;5065982;28;20045;-77
2021/01/31 02:07:13;;;;;;;23.50;15.10;;;-0.20;86.10;;;;;;5050809;28;20388;-78
2021/01/31 02:09:41;;;;;;;21.73;15.00;;;-0.30;86.10;;;;;;5032446;28;20294;-77
2021/01/31 02:12:07;;;;;;;26.63;15.50;;;-0.30;86.30;;;;;;5019686;28;20036;-77
2021/01/31 02:14:35;;;;;;;23.43;14.97;;;-0.30;86.50;;;;;;5036745;28;20303;-77
2021/01/31 02:17:36;;;;;;;25.70;15.33;;;-0.30;86.40;;;;;;5055467;28;20035;-77
2021/01/31 02:20:21;;;;;;;23.87;15.93;;;-0.40;86.40;;;;;;5053097;28;20287;-77
2021/01/31 02:22:58;;;;;;;24.07;15.20;;;-0.40;86.60;;;;;;5049136;28;20288;-77
2021/01/31 02:25:36;;;;;;;25.07;16.03;;;-0.40;86.90;;;;;;5046605;28;20044;-77
2021/01/31 02:28:30;;;;;;;23.37;14.67;;;-0.40;87.00;;;;;;5053553;28;20286;-77
2021/01/31 02:31:23;;;;;;;25.67;15.70;;;-0.50;87.00;;;;;;5057639;28;20065;-77
2021/01/31 02:34:08;;;;;;;25.60;16.55;;;-0.50;87.40;;;;;;5053892;28;20366;-77
2021/01/31 02:36:42;;;;;;;26.70;16.20;;;-0.50;87.40;;;;;;5054718;28;20762;-77
2021/01/31 02:39:19;;;;;;;25.93;15.60;;;-0.60;87.30;;;;;;5087499;28;20302;-77
2021/01/31 02:42:00;;;;;;;23.70;15.93;;;-0.70;87.50;;;;;;5091324;28;20350;-77
2021/01/31 02:44:28;;;;;;;25.97;17.17;;;-0.70;87.80;;;;;;5080481;28;20615;-77
2021/01/31 02:46:58;;;;;;;26.97;17.90;;;-0.70;87.90;;;;;;5076533;28;20332;-77
2021/01/31 02:49:29;;;;;;;27.50;16.97;;;-0.70;88.10;;;;;;5089446;28;20286;-77
2021/01/31 02:52:16;;;;;;;26.00;17.67;;;-0.70;87.80;;;;;;5088774;28;20302;-77
2021/01/31 02:54:46;;;;;;;24.53;16.37;;;-0.80;87.90;;;;;;5088178;28;20297;-77
2021/01/31 02:58:02;;;;;;;28.87;18.43;;;-0.80;88.00;;;;;;5081403;28;20310;-77
2021/01/31 03:00:44;;;;;;;26.37;18.17;;;-0.80;88.20;;;;;;5056246;28;20296;-77
2021/01/31 03:03:19;;;;;;;28.10;17.70;;;-0.80;88.40;;;;;;5079663;28;20290;-77
2021/01/31 03:05:50;;;;;;;28.37;17.67;;;-0.80;88.50;;;;;;5071255;28;20738;-77
2021/01/31 03:08:23;;;;;;;29.43;17.63;;;-0.90;88.20;;;;;;5070809;28;20751;-77
2021/01/31 03:11:01;;;;;;;26.83;16.83;;;-0.90;88.20;;;;;;5084826;28;20290;-77
2021/01/31 03:13:45;;;;;;;28.40;17.23;;;-0.90;88.40;;;;;;5092698;28;20353;-77
2021/01/31 03:16:32;;;;;;;26.90;16.60;;;-0.90;88.60;;;;;;5089803;28;20875;-77
2021/01/31 03:19:07;;;;;;;28.33;16.70;;;-1.00;88.50;;;;;;5084304;28;20305;-77
2021/01/31 03:21:35;;;;;;;30.40;17.93;;;-1.00;88.80;;;;;;5088215;28;20615;-77
2021/01/31 03:24:18;;;;;;;27.77;17.97;;;-1.00;88.80;;;;;;5080564;28;20794;-77
2021/01/31 03:26:48;;;;;;;28.20;17.20;;;-1.00;88.90;;;;;;5069836;28;20273;-77
2021/01/31 03:29:14;;;;;;;25.97;17.50;;;-1.00;89.10;;;;;;5071812;28;20286;-76
2021/01/31 03:31:47;;;;;;;30.37;18.60;;;-1.00;89.00;;;;;;5054108;28;20815;-76
2021/01/31 03:34:17;;;;;;;28.55;17.52;;;-1.00;89.20;;;;;;5087991;28;20036;-76
2021/01/31 03:36:48;;;;;;;26.73;16.93;;;-1.00;89.00;;;;;;5090829;28;20032;-77
2021/01/31 03:39:15;;;;;;;28.37;18.60;;;-1.00;89.10;;;;;;5087962;28;21772;-76
2021/01/31 03:41:42;;;;;;;30.33;18.33;;;-1.00;89.20;;;;;;5090896;28;20270;-77
2021/01/31 03:44:08;;;;;;;27.30;17.47;;;-1.00;89.20;;;;;;5089136;28;20297;-77
2021/01/31 03:46:52;;;;;;;28.03;18.03;;;-1.00;89.30;;;;;;5073881;28;20754;-77
2021/01/31 03:49:29;;;;;;;25.50;17.37;;;-1.10;89.10;;;;;;5087835;28;20028;-77
2021/01/31 03:51:55;;;;;;;31.37;17.67;;;-1.00;89.30;;;;;;5089007;28;20776;-77
2021/01/31 03:54:21;;;;;;;27.87;17.33;;;-1.00;89.30;;;;;;5069119;28;20297;-76
2021/01/31 03:56:55;;;;;;;30.07;18.17;;;-1.00;89.30;;;;;;5070083;28;20468;-77
2021/01/31 03:59:44;;;;;;;29.30;17.83;;;-1.00;89.10;;;;;;5089404;28;20368;-76
2021/01/31 04:02:12;;;;;;;26.47;17.20;;;-1.00;89.20;;;;;;5089884;28;20769;-77
2021/01/31 04:04:49;;;;;;;28.90;17.40;;;-1.00;89.40;;;;;;5069604;28;20294;-76
2021/01/31 04:07:27;;;;;;;28.13;17.90;;;-1.10;89.20;;;;;;5071110;28;20269;-76
2021/01/31 04:09:54;;;;;;;27.93;18.20;;;-1.10;89.20;;;;;;5070603;28;20262;-76
2021/01/31 04:12:23;;;;;;;27.83;17.30;;;-1.10;89.10;;;;;;5070065;28;20290;-76
2021/01/31 04:14:58;;;;;;;29.43;19.17;;;-1.10;89.20;;;;;;5072841;28;20290;-77
2021/01/31 04:17:24;;;;;;;31.97;17.90;;;-1.10;89.30;;;;;;5089162;28;20289;-76
2021/01/31 04:19:50;;;;;;;27.37;18.27;;;-1.00;89.50;;;;;;5071380;28;20294;-77
2021/01/31 04:22:16;;;;;;;24.57;16.40;;;-1.00;89.40;;;;;;5090379;28;20541;-76
2021/01/31 04:24:41;;;;;;;28.90;17.70;;;-1.00;89.20;;;;;;5084421;28;20033;-76
2021/01/31 04:27:07;;;;;;;26.77;16.83;;;-1.00;89.30;;;;;;5077780;28;20126;-76
2021/01/31 04:29:34;;;;;;;25.37;16.93;;;-1.10;89.30;;;;;;5087845;28;20037;-76
2021/01/31 04:32:01;;;;;;;26.03;17.50;;;-1.10;89.30;;;;;;5089321;28;20028;-76
2021/01/31 04:34:26;;;;;;;29.30;18.53;;;-1.00;89.40;;;;;;5069342;28;20884;-76
2021/01/31 04:36:52;;;;;;;27.10;17.60;;;-1.10;89.40;;;;;;5087868;28;20286;-75
2021/01/31 04:39:18;;;;;;;28.10;18.20;;;-1.10;89.40;;;;;;5052038;28;20524;-76
2021/01/31 04:41:44;;;;;;;29.77;18.27;;;-1.20;89.30;;;;;;5035333;28;20457;-75
2021/01/31 04:44:14;;;;;;;26.43;17.90;;;-1.20;89.50;;;;;;5068323;28;20150;-76
2021/01/31 04:46:44;;;;;;;30.27;18.80;;;-1.20;89.60;;;;;;5053212;28;20056;-75
2021/01/31 04:49:27;;;;;;;29.30;18.90;;;-1.20;89.80;;;;;;5069531;28;20282;-76
2021/01/31 04:52:16;;;;;;;27.43;18.50;;;-1.10;89.90;;;;;;5068154;28;20317;-76
2021/01/31 04:54:51;;;;;;;30.80;18.77;;;-1.20;89.80;;;;;;5046358;28;20345;-76
2021/01/31 04:57:35;;;;;;;27.83;17.20;;;-1.10;90.00;;;;;;5085413;28;20273;-76
2021/01/31 05:00:04;;;;;;;26.97;17.30;;;-1.10;89.70;;;;;;5082781;28;20287;-74
2021/01/31 05:02:43;;;;;;;28.73;18.63;;;-1.10;89.70;;;;;;5046476;28;20272;-73
2021/01/31 05:05:19;;;;;;;28.60;17.30;;;-1.10;89.80;;;;;;5064470;28;20318;-75
2021/01/31 05:07:55;;;;;;;27.10;17.40;;;-1.10;89.90;;;;;;5055070;28;20277;-74
2021/01/31 05:10:21;;;;;;;29.17;16.90;;;-1.10;89.80;;;;;;5073601;28;20277;-75
2021/01/31 05:13:04;;;;;;;25.90;17.03;;;-1.20;89.50;;;;;;5073426;28;20286;-74
2021/01/31 05:15:38;;;;;;;31.70;18.87;;;-1.20;89.70;;;;;;5055938;28;20124;-74
2021/01/31 05:18:05;;;;;;;25.60;16.93;;;-1.20;89.80;;;;;;5053688;28;20294;-75
2021/01/31 05:20:35;;;;;;;27.83;17.17;;;-1.20;89.90;;;;;;5053460;28;20370;-75
2021/01/31 05:23:02;;;;;;;27.70;17.03;;;-1.20;89.90;;;;;;5073656;28;20269;-75
2021/01/31 05:25:32;;;;;;;31.07;18.83;;;-1.20;89.90;;;;;;5055083;28;20872;-75
2021/01/31 05:28:00;;;;;;;28.80;18.40;;;-1.30;90.00;;;;;;5053914;28;20287;-76
2021/01/31 05:30:28;;;;;;;28.57;18.27;;;-1.30;89.80;;;;;;5073595;28;20294;-75
2021/01/31 05:33:13;;;;;;;28.60;17.93;;;-1.30;89.90;;;;;;5022375;28;20301;-75
2021/01/31 05:35:45;;;;;;;29.47;18.67;;;-1.30;90.00;;;;;;5054335;28;20298;-75
2021/01/31 05:38:13;;;;;;;32.33;18.75;;;-1.30;90.00;;;;;;5071388;28;20294;-75
2021/01/31 05:40:42;;;;;;;32.27;19.43;;;-1.30;90.00;;;;;;5078052;28;20086;-75
2021/01/31 05:43:14;;;;;;;32.03;18.80;;;-1.40;89.90;;;;;;5080574;28;20286;-75
2021/01/31 05:45:44;;;;;;;30.85;19.17;;;-1.40;90.00;;;;;;5094391;28;20296;-74
2021/01/31 05:48:35;;;;;;;35.47;19.40;;;-1.40;90.00;;;;;;5088308;28;20021;-75
2021/01/31 05:51:14;;;;;;;31.03;18.60;;;-1.40;90.00;;;;;;5080511;28;20355;-75
2021/01/31 05:53:40;;;;;;;30.47;19.93;;;-1.40;90.10;;;;;;5092927;28;20282;-75
2021/01/31 05:56:27;;;;;;;31.73;17.63;;;-1.40;90.10;;;;;;5091060;28;20298;-77
2021/01/31 05:59:14;;;;;;;29.00;18.90;;;-1.40;90.10;;;;;;5092789;28;20702;-75
2021/01/31 06:02:01;;;;;;;31.93;18.90;;;-1.50;90.10;;;;;;5078530;28;20300;-75
2021/01/31 06:04:27;;;;;;;32.70;18.87;;;-1.40;90.10;;;;;;5091639;28;20465;-75
2021/01/31 06:07:04;;;;;;;29.30;18.67;;;-1.50;90.00;;;;;;5076451;28;20271;-75
2021/01/31 06:09:47;;;;;;;29.60;18.77;;;-1.50;90.10;;;;;;5091314;28;20274;-75
2021/01/31 06:12:15;;;;;;;;;;;-1.40;90.10;;;;;;5071823;28;20643;-76
2021/01/31 06:14:48;;;;;;;28.83;16.57;;;-1.40;90.20;;;;;;5092237;28;19927;-75
2021/01/31 06:17:15;;;;;;;;;;;-1.30;90.20;;;;;;5091659;28;20254;-75
2021/01/31 06:19:42;;;;;;;31.93;19.13;;;-1.30;90.00;;;;;;5072036;28;19999;-75
2021/01/31 06:22:11;;;;;;;33.00;18.57;;;-1.40;89.90;;;;;;5090831;28;20266;-77
2021/01/31 06:24:47;;;;;;;29.80;18.73;;;-1.40;90.10;;;;;;5079131;28;20421;-74
2021/01/31 06:27:34;;;;;;;30.67;18.00;;;-1.30;90.20;;;;;;5090758;28;20274;-74
2021/01/31 06:30:23;;;;;;;35.57;17.43;;;-1.30;90.10;;;;;;5096880;28;20408;-74
2021/01/31 06:32:52;;;;;;;31.33;18.00;;;-1.30;90.10;;;;;;5092425;28;20331;-75
2021/01/31 06:35:19;;;;;;;32.60;19.87;;;-1.40;90.10;;;;;;5092011;28;20339;-75
2021/01/31 06:38:11;;;;;;;31.00;18.60;;;-1.40;90.00;;;;;;5087677;28;20313;-75
2021/01/31 06:40:55;;;;;;;30.67;18.53;;;-1.40;90.10;;;;;;5073294;28;20255;-75
2021/01/31 06:43:45;;;;;;;30.70;18.17;;;-1.40;90.10;;;;;;5081593;28;20325;-75
2021/01/31 06:46:32;;;;;;;29.87;17.47;;;-1.50;90.00;;;;;;5091173;28;20292;-76
2021/01/31 06:49:25;;;;;;;31.50;18.63;;;-1.50;90.00;;;;;;5091921;28;20331;-77
2021/01/31 06:52:12;;;;;;;36.35;19.42;;;-1.60;89.90;;;;;;5087368;28;20318;-76
2021/01/31 06:54:43;;;;;;;34.17;18.60;;;-1.60;90.10;;;;;;5091129;28;20114;-76
2021/01/31 06:57:26;;;;;;;30.73;18.47;;;-1.60;90.10;;;;;;5092991;28;20354;-76
2021/01/31 07:00:19;;;;;;;30.52;18.30;;;-1.60;90.10;;;;;;5073110;28;20266;-77
2021/01/31 07:03:10;;;;;;;37.97;18.60;;;-1.60;90.10;;;;;;5074000;28;20111;-77
2021/01/31 07:05:51;;;;;;;34.63;19.83;;;-1.60;90.10;;;;;;5077405;28;20281;-77
2021/01/31 07:08:58;;;;;;;34.47;20.03;;;-1.60;90.20;;;;;;5088836;28;20796;-78
2021/01/31 07:11:45;;;;;;;34.33;19.07;;;-1.60;90.20;;;;;;5080066;28;20273;-76
2021/01/31 07:14:56;;;;;;;30.37;18.70;;;-1.60;90.20;;;;;;5091876;28;20297;-76
2021/01/31 07:17:38;;;;;;;32.87;18.43;;;-1.60;90.20;;;;;;5068159;28;20294;-78
2021/01/31 07:20:21;;;;;;;32.55;19.80;;;-1.60;90.10;;;;;;5091571;28;20293;-79
2021/01/31 07:23:02;;;;;;;34.85;19.52;;;-1.60;90.10;;;;;;5074548;28;20029;-77
2021/01/31 07:25:33;;;;;;;34.93;19.97;;;-1.60;90.20;;;;;;5078472;28;20107;-77
2021/01/31 07:28:08;;;;;;;32.77;18.90;;;-1.60;90.20;;;;;;5087727;28;20286;-76
2021/01/31 07:30:39;;;;;;;34.07;19.57;;;-1.60;90.10;;;;;;5072947;28;20911;-77
2021/01/31 07:33:30;;;;;;;39.77;23.17;;;-1.60;90.40;;;;;;5077417;28;20290;-77
2021/01/31 07:36:10;;;;;;;34.93;20.70;;;-1.50;91.10;;;;;;5090863;28;20471;-77
2021/01/31 07:38:51;;;;;;;32.27;19.40;;;-1.10;90.90;;;;;;5086206;28;20296;-75
2021/01/31 07:41:19;;;;;;;28.20;18.53;;;-0.70;90.50;;;;;;5075800;28;20302;-77
2021/01/31 07:43:51;;;;;;;31.63;17.63;;;-0.50;90.10;;;;;;5084284;28;20331;-78
2021/01/31 07:46:18;;;;;;;30.88;17.92;;;-0.20;88.50;;;;;;5077093;28;20297;-77
2021/01/31 07:48:44;;;;;;;27.83;17.37;;;0.20;87.30;;;;;;5084705;28;20043;-77
2021/01/31 07:51:11;;;;;;;27.37;17.37;;;0.40;86.30;;;;;;5089627;28;20286;-77
2021/01/31 07:53:41;;;;;;;27.90;16.43;;;0.80;85.60;;;;;;5081914;28;20020;-77
2021/01/31 07:56:26;;;;;;;28.83;16.73;;;1.10;83.40;;;;;;5077011;28;20044;-76
2021/01/31 07:58:54;;;;;;;25.27;15.87;;;1.40;81.90;;;;;;5070651;28;20476;-77
2021/01/31 08:01:41;;;;;;;24.37;15.83;;;1.50;80.00;;;;;;5076922;28;20028;-76
2021/01/31 08:04:16;;;;;;;22.40;15.60;;;1.80;79.40;;;;;;5081986;28;20058;-76
2021/01/31 08:06:54;;;;;;;25.27;15.87;;;2.10;78.40;;;;;;5078424;28;20034;-77
2021/01/31 08:09:25;;;;;;;23.13;15.20;;;2.20;77.80;;;;;;5079044;28;20105;-78
2021/01/31 08:11:57;;;;;;;23.57;15.10;;;2.30;75.90;;;;;;5083730;28;20055;-76
2021/01/31 08:15:00;;;;;;;20.60;14.43;;;2.30;75.50;;;;;;5073651;28;20028;-77
2021/01/31 08:17:44;;;;;;;20.10;13.80;;;2.30;75.60;;;;;;5090913;28;20036;-78
2021/01/31 08:20:31;;;;;;;22.03;14.87;;;2.40;75.30;;;;;;5089491;28;20430;-77
2021/01/31 08:23:04;;;;;;;22.73;14.63;;;2.60;74.20;;;;;;5089642;28;20115;-78
2021/01/31 08:25:53;;;;;;;22.70;15.13;;;2.90;74.20;;;;;;5090234;28;20107;-78
2021/01/31 08:28:25;;;;;;;21.47;14.17;;;3.10;73.50;;;;;;5079265;28;20023;-78
2021/01/31 08:31:12;;;;;;;19.70;14.07;;;3.50;72.80;;;;;;5091317;28;20453;-78
2021/01/31 08:33:42;;;;;;;23.97;16.30;;;3.70;71.20;;;;;;5089012;28;20028;-77
2021/01/31 08:36:30;;;;;;;20.33;14.87;;;3.70;71.30;;;;;;5076577;28;20076;-78
2021/01/31 08:38:57;;;;;;;23.10;14.70;;;3.90;71.80;;;;;;5068810;28;20080;-78
2021/01/31 08:41:26;;;;;;;19.33;13.07;;;4.30;71.00;;;;;;5069889;28;20036;-78
2021/01/31 08:43:58;;;;;;;23.10;15.63;;;4.50;68.40;;;;;;5070127;28;20021;-77
2021/01/31 08:46:30;;;;;;;22.02;13.70;;;4.80;69.80;;;;;;5050885;28;20036;-78
2021/01/31 08:49:17;;;;;;;21.37;15.67;;;4.80;66.90;;;;;;5051722;28;20123;-78
2021/01/31 08:51:54;;;;;;;24.40;15.47;;;4.80;68.10;;;;;;5047286;28;20380;-77
2021/01/31 08:54:21;;;;;;;17.37;12.50;;;4.80;67.50;;;;;;5042703;28;20029;-78
2021/01/31 08:57:01;;;;;;;20.53;13.57;;;5.10;65.90;;;;;;5046238;28;20020;-78
2021/01/31 08:59:32;;;;;;;22.17;14.80;;;5.10;66.70;;;;;;5052568;28;20033;-78
2021/01/31 09:01:58;;;;;;;19.33;12.97;;;4.90;66.50;;;;;;5052283;28;20017;-78
2021/01/31 09:04:25;;;;;;;19.60;13.97;;;4.50;66.90;;;;;;5060046;28;20028;-79
2021/01/31 09:06:52;;;;;;;25.40;17.17;;;4.20;67.80;;;;;;5060335;28;20028;-78
2021/01/31 09:09:22;;;;;;;21.40;14.90;;;4.20;68.50;;;;;;5037506;28;20469;-78
2021/01/31 09:12:01;;;;;;;19.87;14.17;;;4.50;68.80;;;;;;5068881;28;20090;-78
2021/01/31 09:14:32;;;;;;;19.00;13.47;;;4.90;67.20;;;;;;5053463;28;20107;-80
2021/01/31 09:17:26;;;;;;;20.03;12.53;;;5.00;65.40;;;;;;5037290;28;20391;-80
2021/01/31 09:20:26;;;;;;;17.37;12.57;;;4.60;65.20;;;;;;5052259;28;20028;-79
2021/01/31 09:22:55;;;;;;;18.60;13.67;;;4.20;65.50;;;;;;5053009;28;20395;-79
2021/01/31 09:25:23;;;;;;;22.17;14.90;;;3.60;66.40;;;;;;5051917;28;20059;-79
2021/01/31 09:28:00;;;;;;;18.30;13.73;;;3.00;68.60;;;;;;5052238;28;20033;-79
2021/01/31 09:30:27;;;;;;;21.67;14.27;;;2.90;69.80;;;;;;5051887;28;20029;-80
2021/01/31 09:33:04;;;;;;;21.90;14.47;;;3.00;69.80;;;;;;5036100;28;20025;-80
2021/01/31 09:35:34;;;;;;;21.73;14.70;;;3.30;69.80;;;;;;5052317;28;20482;-79
2021/01/31 09:38:21;;;;;;;17.93;13.17;;;3.80;68.60;;;;;;5070008;28;20488;-79
2021/01/31 09:40:48;;;;;;;19.83;14.03;;;4.00;67.40;;;;;;5091336;28;20078;-79
2021/01/31 09:43:19;;;;;;;19.17;13.70;;;4.20;67.10;;;;;;5091284;28;20020;-79
2021/01/31 09:45:49;;;;;;;17.27;12.33;;;4.40;66.10;;;;;;5092235;28;20028;-79
2021/01/31 09:48:19;;;;;;;17.13;12.90;;;4.40;65.90;;;;;;5089749;28;20028;-78
2021/01/31 09:50:50;;;;;;;22.10;13.03;;;4.20;65.60;;;;;;5088758;28;20024;-79
2021/01/31 09:53:38;;;;;;;19.07;12.77;;;3.90;66.00;;;;;;5089769;28;20028;-81
2021/01/31 09:56:34;;;;;;;19.60;13.60;;;3.80;66.90;;;;;;5093378;28;20060;-82
2021/01/31 09:59:00;;;;;;;24.57;15.47;;;3.90;66.60;;;;;;5080618;28;20498;-82
2021/01/31 10:01:28;;;;;;;20.60;12.90;;;4.20;67.80;;;;;;5091427;28;20024;-82
2021/01/31 10:04:02;;;;;;;19.50;13.87;;;4.60;66.40;;;;;;5094675;28;20032;-83
2021/01/31 10:06:46;;;;;;;19.87;12.97;;;5.10;66.30;;;;;;5088085;28;20027;-81
2021/01/31 10:09:11;;;;;;;17.57;12.33;;;5.30;64.40;;;;;;5093309;28;20483;-81
2021/01/31 10:11:44;;;;;;;17.70;11.17;;;5.40;63.10;;;;;;5089786;28;20081;-82
2021/01/31 10:14:12;;;;;;;14.82;11.25;;;5.50;62.10;;;;;;5094956;28;20024;-82
2021/01/31 10:16:41;;;;;;;15.47;11.90;;;5.10;62.30;;;;;;5092335;28;20036;-82
2021/01/31 10:19:16;;;;;;;14.90;11.90;;;4.80;63.80;;;;;;5093575;28;20054;-82
2021/01/31 10:21:55;;;;;;;15.70;11.87;;;4.90;63.20;;;;;;5091248;28;20147;-81
2021/01/31 10:24:32;;;;;;;17.27;11.60;;;4.60;63.30;;;;;;5092350;28;20082;-81
2021/01/31 10:27:09;;;;;;;17.07;12.07;;;4.60;64.20;;;;;;5093969;28;20383;-81
2021/01/31 10:29:35;;;;;;;17.67;12.03;;;4.60;64.70;;;;;;5095397;28;20157;-81
2021/01/31 10:32:19;;;;;;;15.37;11.23;;;4.90;63.80;;;;;;5092464;28;20032;-82
2021/01/31 10:34:44;;;;;;;15.45;11.38;;;4.80;63.70;;;;;;5090848;28;20480;-80
2021/01/31 10:37:14;;;;;;;15.27;11.50;;;4.90;63.40;;;;;;5092454;28;20024;-81
2021/01/31 10:39:40;;;;;;;18.50;12.20;;;4.90;64.20;;;;;;5072902;28;20670;-79
2021/01/31 10:42:06;;;;;;;15.53;11.63;;;5.40;64.10;;;;;;5054629;28;20056;-80
2021/01/31 10:44:32;;;;;;;16.00;11.50;;;5.40;62.30;;;;;;5054400;28;20033;-80
2021/01/31 10:46:58;;;;;;;19.80;13.07;;;5.30;62.90;;;;;;5046598;28;20029;-81
2021/01/31 10:49:24;;;;;;;18.27;11.63;;;5.30;63.50;;;;;;5045092;28;20040;-80
2021/01/31 10:51:50;;;;;;;16.13;11.13;;;5.30;62.60;;;;;;5015884;28;20035;-80
2021/01/31 10:54:17;;;;;;;15.77;12.03;;;5.10;62.80;;;;;;5055126;28;20055;-80
2021/01/31 10:56:42;;;;;;;15.10;10.80;;;5.00;63.30;;;;;;5038171;28;20033;-81
2021/01/31 10:59:08;;;;;;;15.00;11.07;;;4.80;63.10;;;;;;5041719;28;20028;-80
2021/01/31 11:01:34;;;;;;;15.37;11.83;;;5.00;64.00;;;;;;5058868;28;20036;-80
2021/01/31 11:04:00;;;;;;;14.20;10.73;;;5.20;62.60;;;;;;5042096;28;20044;-81
2021/01/31 11:06:27;;;;;;;17.23;11.60;;;5.00;63.10;;;;;;5041006;28;20033;-81
2021/01/31 11:08:53;;;;;;;16.33;11.43;;;5.20;63.10;;;;;;5057728;28;20024;-82
2021/01/31 11:11:20;;;;;;;16.30;10.67;;;5.20;62.80;;;;;;5057869;28;20029;-81
2021/01/31 11:13:47;;;;;;;17.13;11.80;;;5.00;63.30;;;;;;5057911;28;20589;-82
2021/01/31 11:16:13;;;;;;;13.57;10.73;;;5.20;63.70;;;;;;5056085;28;20025;-80
2021/01/31 11:18:38;;;;;;;15.33;10.53;;;5.40;62.60;;;;;;5055008;28;20031;-81
2021/01/31 11:21:05;;;;;;;16.17;11.70;;;5.40;62.30;;;;;;5057861;28;20101;-83
2021/01/31 11:23:30;;;;;;;15.77;10.93;;;5.50;62.70;;;;;;5055727;28;20238;-80
2021/01/31 11:25:56;;;;;;;13.20;10.27;;;5.40;62.80;;;;;;5042714;28;20527;-82
2021/01/31 11:28:22;;;;;;;13.57;10.10;;;5.40;62.40;;;;;;5061137;28;20464;-82
2021/01/31 11:30:47;;;;;;;14.60;10.97;;;5.20;62.60;;;;;;5056090;28;20302;-82
2021/01/31 11:33:14;;;;;;;15.43;10.90;;;5.10;62.70;;;;;;5055707;28;20032;-82
2021/01/31 11:35:39;;;;;;;14.90;10.47;;;5.00;63.60;;;;;;5053579;28;20082;-82
2021/01/31 11:38:06;;;;;;;14.47;10.93;;;5.10;63.60;;;;;;5065327;28;20449;-82
2021/01/31 11:40:32;;;;;;;14.00;10.03;;;5.00;63.40;;;;;;5083751;28;20031;-83
2021/01/31 11:42:58;;;;;;;14.87;10.50;;;4.90;63.60;;;;;;5079277;28;20078;-82
2021/01/31 11:45:26;;;;;;;13.60;9.80;;;4.70;64.80;;;;;;5079599;28;20040;-82
2021/01/31 11:47:52;;;;;;;15.83;10.73;;;4.70;65.00;;;;;;5075260;28;20025;-83
2021/01/31 11:50:19;;;;;;;15.80;10.60;;;4.60;64.80;;;;;;5057874;28;20400;-82
2021/01/31 11:52:44;;;;;;;13.47;9.80;;;4.40;65.00;;;;;;5091975;28;20097;-82
2021/01/31 11:55:11;;;;;;;14.20;9.40;;;4.20;65.60;;;;;;5090225;28;20036;-82
2021/01/31 11:57:37;;;;;;;14.10;9.67;;;4.20;65.80;;;;;;5066524;28;20034;-81
2021/01/31 12:00:11;;;;;;;16.30;9.50;;;4.10;66.00;;;;;;5088309;28;20089;-82
2021/01/31 12:02:37;;;;;;;14.57;9.67;;;4.10;66.70;;;;;;5091661;28;20069;-82
2021/01/31 12:05:03;;;;;;;14.07;10.10;;;4.00;66.80;;;;;;5066031;28;20032;-83
2021/01/31 12:07:29;;;;;;;14.60;10.33;;;4.00;66.90;;;;;;5080986;28;20058;-83
2021/01/31 12:09:54;;;;;;;16.27;11.43;;;4.10;67.10;;;;;;5076355;28;20028;-82
2021/01/31 12:12:20;;;;;;;15.30;10.90;;;4.20;66.90;;;;;;5090494;28;20032;-82
2021/01/31 12:14:46;;;;;;;15.73;10.73;;;4.30;67.00;;;;;;5089462;28;20044;-83
2021/01/31 12:17:12;;;;;;;15.60;10.07;;;4.30;66.80;;;;;;5090372;28;20028;-82
2021/01/31 12:19:37;;;;;;;14.33;10.20;;;4.30;66.30;;;;;;5089278;28;20020;-83
2021/01/31 12:22:03;;;;;;;14.20;10.10;;;4.10;67.00;;;;;;5088996;28;20096;-82
2021/01/31 12:24:29;;;;;;;16.20;10.50;;;4.10;67.30;;;;;;5086231;28;20028;-83
2021/01/31 12:26:54;;;;;;;13.17;9.53;;;4.10;67.20;;;;;;5087457;28;20032;-82
2021/01/31 12:29:20;;;;;;;13.77;9.47;;;4.20;67.30;;;;;;5061022;28;20020;-83
2021/01/31 12:31:46;;;;;;;14.03;9.73;;;4.30;67.00;;;;;;5065091;28;20028;-81
2021/01/31 12:34:12;;;;;;;12.13;9.27;;;4.20;66.50;;;;;;5087350;28;20024;-81
2021/01/31 12:36:40;;;;;;;12.77;9.33;;;4.00;67.10;;;;;;5059652;28;20529;-78
2021/01/31 12:39:06;;;;;;;12.37;8.80;;;4.00;66.80;;;;;;5062553;28;20070;-81
2021/01/31 12:41:32;;;;;;;12.17;8.60;;;3.80;66.80;;;;;;5087966;28;20033;-83
2021/01/31 12:43:57;;;;;;;14.17;9.70;;;3.80;67.20;;;;;;5055207;28;20029;-82
2021/01/31 12:46:23;;;;;;;14.67;9.90;;;3.70;67.50;;;;;;5048745;28;20113;-85
2021/01/31 12:48:49;;;;;;;14.40;10.40;;;3.60;67.60;;;;;;5075074;28;20037;-83
2021/01/31 12:51:14;;;;;;;16.50;10.77;;;3.50;67.70;;;;;;5081990;28;20033;-84
2021/01/31 12:53:40;;;;;;;12.80;9.50;;;3.60;68.10;;;;;;5089749;28;20033;-78
2021/01/31 12:56:06;;;;;;;16.53;9.67;;;3.60;68.00;;;;;;5086203;28;20036;-81
2021/01/31 12:58:31;;;;;;;12.83;9.67;;;3.50;68.00;;;;;;5076993;28;20028;-83
2021/01/31 13:00:58;;;;;;;13.93;9.70;;;3.50;68.60;;;;;;5083045;28;20032;-82